Terminal Aerodrome Forecast
Issued by NWS

Current Version | Previous Version | Graphics & Text | Print | Product List | Glossary On
Versions: 1 2 3 4 5 6 7 8 9 10 11 12 13 14
000
FTUS41 KILN 241130
TAFLCK
TAF
KLCK 241130Z 2412/2512 04008KT P6SM SCT250
     FM241800 08011KT P6SM SCT200
     FM250100 10008KT P6SM FEW050 BKN200=

USA.gov is the U.S. government's official web portal to all federal, state and local government web resources and services.